sensor_id;sensor_type;location;lat;lon;timestamp;pressure;altitude;pressure_sealevel;temperature;humidity
51687;BME280;37774;52.192;4.584;2023-04-26T00:02:04;102153.59;;;2.66;100.00
51687;BME280;37774;52.192;4.584;2023-04-26T00:04:50;102115.03;;;2.46;100.00
51687;BME280;37774;52.192;4.584;2023-04-26T00:07:39;101891.00;;;1.14;100.00
51687;BME280;37774;52.192;4.584;2023-04-26T00:10:25;102213.91;;;2.94;100.00
51687;BME280;37774;52.192;4.584;2023-04-26T00:13:11;102118.16;;;2.21;100.00
51687;BME280;37774;52.192;4.584;2023-04-26T00:15:56;102166.13;;;2.41;100.00
51687;BME280;37774;52.192;4.584;2023-04-26T00:18:42;102217.25;;;2.73;100.00
51687;BME280;37774;52.192;4.584;2023-04-26T00:21:27;102157.88;;;2.29;100.00
51687;BME280;37774;52.192;4.584;2023-04-26T00:24:14;102192.59;;;2.40;100.00
51687;BME280;37774;52.192;4.584;2023-04-26T00:26:59;102161.94;;;2.25;100.00
51687;BME280;37774;52.192;4.584;2023-04-26T00:29:51;102224.50;;;2.45;100.00
51687;BME280;37774;52.192;4.584;2023-04-26T00:32:37;102210.56;;;2.40;100.00
51687;BME280;37774;52.192;4.584;2023-04-26T00:35:23;102214.75;;;2.38;100.00
51687;BME280;37774;52.192;4.584;2023-04-26T00:38:08;102176.16;;;2.00;100.00
51687;BME280;37774;52.192;4.584;2023-04-26T00:40:55;102188.06;;;2.00;100.00
51687;BME280;37774;52.192;4.584;2023-04-26T00:43:41;102079.06;;;1.37;100.00
51687;BME280;37774;52.192;4.584;2023-04-26T00:46:26;102101.94;;;1.51;100.00
51687;BME280;37774;52.192;4.584;2023-04-26T00:49:16;102227.09;;;2.11;100.00
51687;BME280;37774;52.192;4.584;2023-04-26T00:52:03;102168.47;;;1.66;100.00
51687;BME280;37774;52.192;4.584;2023-04-26T00:54:48;102150.94;;;1.40;100.00
51687;BME280;37774;52.192;4.584;2023-04-26T00:57:35;102243.53;;;1.98;100.00
51687;BME280;37774;52.192;4.584;2023-04-26T01:00:21;102241.16;;;1.84;100.00
51687;BME280;37774;52.192;4.584;2023-04-26T01:03:06;102254.94;;;1.86;100.00
51687;BME280;37774;52.192;4.584;2023-04-26T01:05:52;102197.38;;;1.46;100.00
51687;BME280;37774;52.192;4.584;2023-04-26T01:08:38;102014.00;;;0.33;100.00
51687;BME280;37774;52.192;4.584;2023-04-26T01:11:23;102284.50;;;1.80;100.00
51687;BME280;37774;52.192;4.584;2023-04-26T01:14:10;102224.53;;;1.59;100.00
51687;BME280;37774;52.192;4.584;2023-04-26T01:16:56;102255.19;;;1.74;100.00
51687;BME280;37774;52.192;4.584;2023-04-26T01:19:46;102204.19;;;1.29;100.00
51687;BME280;37774;52.192;4.584;2023-04-26T01:22:33;102283.78;;;1.82;100.00
51687;BME280;37774;52.192;4.584;2023-04-26T01:25:20;102287.56;;;1.72;100.00
51687;BME280;37774;52.192;4.584;2023-04-26T01:28:05;102288.19;;;1.68;100.00
51687;BME280;37774;52.192;4.584;2023-04-26T01:30:50;102275.78;;;1.59;100.00
51687;BME280;37774;52.192;4.584;2023-04-26T01:33:36;102227.31;;;1.31;100.00
51687;BME280;37774;52.192;4.584;2023-04-26T01:36:21;102205.22;;;1.16;100.00
51687;BME280;37774;52.192;4.584;2023-04-26T01:39:08;102225.50;;;1.45;100.00
51687;BME280;37774;52.192;4.584;2023-04-26T01:41:56;102194.97;;;1.00;100.00
51687;BME280;37774;52.192;4.584;2023-04-26T01:44:42;102279.22;;;1.77;100.00
51687;BME280;37774;52.192;4.584;2023-04-26T01:47:27;102221.72;;;1.38;100.00
51687;BME280;37774;52.192;4.584;2023-04-26T01:50:13;102258.25;;;1.67;100.00
51687;BME280;37774;52.192;4.584;2023-04-26T01:52:58;102273.94;;;1.73;100.00
51687;BME280;37774;52.192;4.584;2023-04-26T01:55:45;102276.72;;;1.62;100.00
51687;BME280;37774;52.192;4.584;2023-04-26T01:58:30;102291.09;;;1.74;100.00
51687;BME280;37774;52.192;4.584;2023-04-26T02:01:16;102283.13;;;1.70;100.00
51687;BME280;37774;52.192;4.584;2023-04-26T02:04:02;102291.06;;;1.58;100.00
51687;BME280;37774;52.192;4.584;2023-04-26T02:06:47;102261.25;;;1.27;100.00
51687;BME280;37774;52.192;4.584;2023-04-26T02:09:33;102282.06;;;1.33;100.00
51687;BME280;37774;52.192;4.584;2023-04-26T02:12:20;102203.66;;;0.87;100.00
51687;BME280;37774;52.192;4.584;2023-04-26T02:15:07;102196.09;;;0.73;100.00
51687;BME280;37774;52.192;4.584;2023-04-26T02:17:53;102264.06;;;1.15;100.00
51687;BME280;37774;52.192;4.584;2023-04-26T02:20:39;102252.91;;;1.14;100.00
51687;BME280;37774;52.192;4.584;2023-04-26T02:23:25;102308.50;;;1.49;100.00
51687;BME280;37774;52.192;4.584;2023-04-26T02:26:12;102183.59;;;0.63;100.00
51687;BME280;37774;52.192;4.584;2023-04-26T02:28:59;102301.44;;;1.28;100.00
51687;BME280;37774;52.192;4.584;2023-04-26T02:31:44;102315.19;;;1.30;100.00
51687;BME280;37774;52.192;4.584;2023-04-26T02:34:31;102317.22;;;1.36;100.00
51687;BME280;37774;52.192;4.584;2023-04-26T02:37:16;102293.47;;;1.07;100.00
51687;BME280;37774;52.192;4.584;2023-04-26T02:40:03;102305.56;;;1.09;100.00
51687;BME280;37774;52.192;4.584;2023-04-26T02:42:49;102301.81;;;1.19;100.00
51687;BME280;37774;52.192;4.584;2023-04-26T02:45:41;102321.47;;;1.35;100.00
51687;BME280;37774;52.192;4.584;2023-04-26T02:48:26;102326.88;;;1.25;100.00
51687;BME280;37774;52.192;4.584;2023-04-26T02:51:12;102204.06;;;0.63;100.00
51687;BME280;37774;52.192;4.584;2023-04-26T02:53:58;102324.97;;;1.37;100.00
51687;BME280;37774;52.192;4.584;2023-04-26T02:56:43;102226.97;;;0.77;100.00
51687;BME280;37774;52.192;4.584;2023-04-26T02:59:29;102269.88;;;1.12;100.00
51687;BME280;37774;52.192;4.584;2023-04-26T03:02:15;102302.78;;;1.21;100.00
51687;BME280;37774;52.192;4.584;2023-04-26T03:05:01;102323.22;;;1.36;100.00
51687;BME280;37774;52.192;4.584;2023-04-26T03:07:46;102242.66;;;0.83;100.00
51687;BME280;37774;52.192;4.584;2023-04-26T03:10:32;102322.88;;;1.30;100.00
51687;BME280;37774;52.192;4.584;2023-04-26T03:13:17;102285.44;;;1.00;100.00
51687;BME280;37774;52.192;4.584;2023-04-26T03:16:03;102192.81;;;0.45;100.00
51687;BME280;37774;52.192;4.584;2023-04-26T03:18:51;102270.38;;;0.90;100.00
51687;BME280;37774;52.192;4.584;2023-04-26T03:21:37;102274.44;;;0.86;100.00
51687;BME280;37774;52.192;4.584;2023-04-26T03:24:22;102258.59;;;0.77;100.00
51687;BME280;37774;52.192;4.584;2023-04-26T03:27:08;102300.72;;;0.99;100.00
51687;BME280;37774;52.192;4.584;2023-04-26T03:29:53;102307.31;;;1.10;100.00
51687;BME280;37774;52.192;4.584;2023-04-26T03:32:39;102301.50;;;1.13;100.00
51687;BME280;37774;52.192;4.584;2023-04-26T03:35:26;102271.25;;;0.91;100.00
51687;BME280;37774;52.192;4.584;2023-04-26T03:38:11;102358.97;;;1.18;100.00
51687;BME280;37774;52.192;4.584;2023-04-26T03:40:57;102242.84;;;0.86;100.00
51687;BME280;37774;52.192;4.584;2023-04-26T03:43:42;102299.47;;;1.07;100.00
51687;BME280;37774;52.192;4.584;2023-04-26T03:46:27;102294.84;;;1.16;100.00
51687;BME280;37774;52.192;4.584;2023-04-26T03:49:13;102189.72;;;0.50;100.00
51687;BME280;37774;52.192;4.584;2023-04-26T03:52:00;102310.94;;;1.14;100.00
51687;BME280;37774;52.192;4.584;2023-04-26T03:54:45;102303.28;;;0.99;100.00
51687;BME280;37774;52.192;4.584;2023-04-26T03:57:30;101988.06;;;-0.98;100.00
51687;BME280;37774;52.192;4.584;2023-04-26T04:00:16;102255.97;;;0.61;100.00
51687;BME280;37774;52.192;4.584;2023-04-26T04:03:01;102162.81;;;-0.05;100.00
51687;BME280;37774;52.192;4.584;2023-04-26T04:05:47;102296.25;;;0.80;100.00
51687;BME280;37774;52.192;4.584;2023-04-26T04:08:34;102289.06;;;0.89;100.00
51687;BME280;37774;52.192;4.584;2023-04-26T04:11:20;101946.03;;;-1.49;100.00
51687;BME280;37774;52.192;4.584;2023-04-26T04:14:06;102298.44;;;0.89;100.00
51687;BME280;37774;52.192;4.584;2023-04-26T04:16:51;102247.75;;;0.66;100.00
51687;BME280;37774;52.192;4.584;2023-04-26T04:19:37;102217.03;;;0.51;100.00
51687;BME280;37774;52.192;4.584;2023-04-26T04:22:22;102305.28;;;1.05;100.00
51687;BME280;37774;52.192;4.584;2023-04-26T04:25:09;102274.19;;;0.82;100.00
51687;BME280;37774;52.192;4.584;2023-04-26T04:27:54;102313.16;;;1.08;100.00
51687;BME280;37774;52.192;4.584;2023-04-26T04:30:41;102305.28;;;1.05;100.00
51687;BME280;37774;52.192;4.584;2023-04-26T04:33:29;102194.41;;;0.42;100.00
51687;BME280;37774;52.192;4.584;2023-04-26T04:36:14;102181.22;;;0.51;100.00
51687;BME280;37774;52.192;4.584;2023-04-26T04:39:00;102327.06;;;1.44;100.00
51687;BME280;37774;52.192;4.584;2023-04-26T04:41:48;102292.63;;;1.39;100.00
51687;BME280;37774;52.192;4.584;2023-04-26T04:44:34;102328.31;;;1.51;100.00
51687;BME280;37774;52.192;4.584;2023-04-26T04:47:20;102324.56;;;1.78;100.00
51687;BME280;37774;52.192;4.584;2023-04-26T04:50:06;102318.16;;;1.69;100.00
51687;BME280;37774;52.192;4.584;2023-04-26T04:52:52;102298.03;;;1.60;100.00
51687;BME280;37774;52.192;4.584;2023-04-26T04:55:38;102264.31;;;1.53;100.00
51687;BME280;37774;52.192;4.584;2023-04-26T04:58:24;102319.97;;;2.05;100.00
51687;BME280;37774;52.192;4.584;2023-04-26T05:01:10;102260.31;;;1.74;100.00
51687;BME280;37774;52.192;4.584;2023-04-26T05:03:55;102282.25;;;1.86;100.00
51687;BME280;37774;52.192;4.584;2023-04-26T05:06:41;102238.13;;;1.75;100.00
51687;BME280;37774;52.192;4.584;2023-04-26T05:09:27;102331.88;;;2.38;100.00
51687;BME280;37774;52.192;4.584;2023-04-26T05:12:12;102333.13;;;2.46;100.00
51687;BME280;37774;52.192;4.584;2023-04-26T05:14:59;101963.25;;;0.07;100.00
51687;BME280;37774;52.192;4.584;2023-04-26T05:17:44;102244.13;;;1.92;100.00
51687;BME280;37774;52.192;4.584;2023-04-26T05:20:30;102308.22;;;2.43;100.00
51687;BME280;37774;52.192;4.584;2023-04-26T05:23:15;102331.81;;;2.54;100.00
51687;BME280;37774;52.192;4.584;2023-04-26T05:26:02;102291.94;;;2.43;100.00
51687;BME280;37774;52.192;4.584;2023-04-26T05:28:48;102323.28;;;2.72;100.00
51687;BME280;37774;52.192;4.584;2023-04-26T05:31:35;102160.53;;;1.78;100.00
51687;BME280;37774;52.192;4.584;2023-04-26T05:34:20;102344.78;;;2.92;100.00
51687;BME280;37774;52.192;4.584;2023-04-26T05:37:05;102297.91;;;2.60;100.00
51687;BME280;37774;52.192;4.584;2023-04-26T05:39:51;102334.22;;;2.86;100.00
51687;BME280;37774;52.192;4.584;2023-04-26T05:42:36;102369.28;;;3.03;100.00
51687;BME280;37774;52.192;4.584;2023-04-26T05:45:22;102367.97;;;3.12;100.00
51687;BME280;37774;52.192;4.584;2023-04-26T05:48:09;102326.09;;;2.95;100.00
51687;BME280;37774;52.192;4.584;2023-04-26T05:50:54;102370.41;;;3.27;100.00
51687;BME280;37774;52.192;4.584;2023-04-26T05:53:40;102376.88;;;3.36;100.00
51687;BME280;37774;52.192;4.584;2023-04-26T05:56:25;102371.53;;;3.51;100.00
51687;BME280;37774;52.192;4.584;2023-04-26T05:59:11;102355.94;;;3.47;100.00
51687;BME280;37774;52.192;4.584;2023-04-26T06:01:56;102383.03;;;3.78;100.00
51687;BME280;37774;52.192;4.584;2023-04-26T06:04:43;102388.13;;;3.96;100.00
51687;BME280;37774;52.192;4.584;2023-04-26T06:07:28;102321.72;;;3.68;100.00
51687;BME280;37774;52.192;4.584;2023-04-26T06:10:14;102400.09;;;4.15;100.00
51687;BME280;37774;52.192;4.584;2023-04-26T06:13:00;102382.34;;;4.21;100.00
51687;BME280;37774;52.192;4.584;2023-04-26T06:15:46;102346.03;;;3.94;100.00
51687;BME280;37774;52.192;4.584;2023-04-26T06:18:32;102399.25;;;4.56;100.00
51687;BME280;37774;52.192;4.584;2023-04-26T06:21:19;102398.72;;;4.84;100.00
51687;BME280;37774;52.192;4.584;2023-04-26T06:24:04;102288.53;;;4.34;100.00
51687;BME280;37774;52.192;4.584;2023-04-26T06:26:50;102380.34;;;5.19;100.00
51687;BME280;37774;52.192;4.584;2023-04-26T06:29:36;102308.63;;;4.86;100.00
51687;BME280;37774;52.192;4.584;2023-04-26T06:32:21;102260.88;;;4.73;100.00
51687;BME280;37774;52.192;4.584;2023-04-26T06:35:07;102322.88;;;5.44;100.00
51687;BME280;37774;52.192;4.584;2023-04-26T06:37:54;102255.69;;;5.17;100.00
51687;BME280;37774;52.192;4.584;2023-04-26T06:40:39;102289.25;;;5.41;100.00
51687;BME280;37774;52.192;4.584;2023-04-26T06:43:25;102308.91;;;5.62;100.00
51687;BME280;37774;52.192;4.584;2023-04-26T06:46:10;102274.50;;;5.61;100.00
51687;BME280;37774;52.192;4.584;2023-04-26T06:48:56;102181.34;;;5.28;100.00
51687;BME280;37774;52.192;4.584;2023-04-26T06:51:41;102242.97;;;5.68;100.00
51687;BME280;37774;52.192;4.584;2023-04-26T06:54:29;102161.78;;;5.33;100.00
51687;BME280;37774;52.192;4.584;2023-04-26T06:57:15;102231.81;;;5.94;100.00
51687;BME280;37774;52.192;4.584;2023-04-26T07:00:00;102263.81;;;6.25;100.00
51687;BME280;37774;52.192;4.584;2023-04-26T07:02:47;102212.59;;;5.85;100.00
51687;BME280;37774;52.192;4.584;2023-04-26T07:05:33;102234.97;;;6.37;100.00
51687;BME280;37774;52.192;4.584;2023-04-26T07:08:18;102220.97;;;6.30;100.00
51687;BME280;37774;52.192;4.584;2023-04-26T07:11:09;102232.97;;;6.29;100.00
51687;BME280;37774;52.192;4.584;2023-04-26T07:13:55;102100.22;;;5.68;100.00
51687;BME280;37774;52.192;4.584;2023-04-26T07:16:41;102230.50;;;6.60;100.00
51687;BME280;37774;52.192;4.584;2023-04-26T07:19:26;102230.31;;;6.81;100.00
51687;BME280;37774;52.192;4.584;2023-04-26T07:22:12;102219.22;;;6.85;100.00
51687;BME280;37774;52.192;4.584;2023-04-26T07:24:57;102145.63;;;6.43;100.00
51687;BME280;37774;52.192;4.584;2023-04-26T07:27:44;102191.22;;;6.70;100.00
51687;BME280;37774;52.192;4.584;2023-04-26T07:30:29;102131.38;;;6.27;100.00
51687;BME280;37774;52.192;4.584;2023-04-26T07:33:16;102167.56;;;6.87;100.00
51687;BME280;37774;52.192;4.584;2023-04-26T07:36:01;102170.53;;;6.99;100.00
51687;BME280;37774;52.192;4.584;2023-04-26T07:38:47;102162.56;;;6.92;100.00
51687;BME280;37774;52.192;4.584;2023-04-26T07:41:32;102164.81;;;7.10;100.00
51687;BME280;37774;52.192;4.584;2023-04-26T07:44:19;102141.13;;;6.65;100.00
51687;BME280;37774;52.192;4.584;2023-04-26T07:47:10;102146.44;;;7.00;100.00
51687;BME280;37774;52.192;4.584;2023-04-26T07:49:56;102073.19;;;6.68;100.00
51687;BME280;37774;52.192;4.584;2023-04-26T07:52:41;102063.59;;;6.64;100.00
51687;BME280;37774;52.192;4.584;2023-04-26T07:55:27;102129.78;;;7.21;100.00
51687;BME280;37774;52.192;4.584;2023-04-26T07:58:12;102084.91;;;7.19;100.00
51687;BME280;37774;52.192;4.584;2023-04-26T08:00:59;102131.88;;;7.70;100.00
51687;BME280;37774;52.192;4.584;2023-04-26T08:03:45;102068.84;;;6.99;100.00
51687;BME280;37774;52.192;4.584;2023-04-26T08:06:31;102121.97;;;7.52;100.00
51687;BME280;37774;52.192;4.584;2023-04-26T08:09:17;102130.28;;;7.75;100.00
51687;BME280;37774;52.192;4.584;2023-04-26T08:12:03;102073.66;;;7.17;100.00
51687;BME280;37774;52.192;4.584;2023-04-26T08:14:48;102131.41;;;7.85;100.00
51687;BME280;37774;52.192;4.584;2023-04-26T08:17:35;102118.41;;;7.83;100.00
51687;BME280;37774;52.192;4.584;2023-04-26T08:20:21;102098.94;;;7.63;100.00
51687;BME280;37774;52.192;4.584;2023-04-26T08:23:06;102075.47;;;7.92;100.00
51687;BME280;37774;52.192;4.584;2023-04-26T08:25:52;102017.94;;;7.65;100.00
51687;BME280;37774;52.192;4.584;2023-04-26T08:28:37;102027.88;;;7.85;100.00
51687;BME280;37774;52.192;4.584;2023-04-26T08:31:23;102102.72;;;8.51;100.00
51687;BME280;37774;52.192;4.584;2023-04-26T08:34:09;102004.72;;;7.91;100.00
51687;BME280;37774;52.192;4.584;2023-04-26T08:36:56;102043.56;;;8.31;100.00
51687;BME280;37774;52.192;4.584;2023-04-26T08:39:41;102087.06;;;8.89;100.00
51687;BME280;37774;52.192;4.584;2023-04-26T08:42:27;102095.28;;;9.12;100.00
51687;BME280;37774;52.192;4.584;2023-04-26T08:45:14;102022.84;;;8.74;100.00
51687;BME280;37774;52.192;4.584;2023-04-26T08:48:02;102077.13;;;9.11;100.00
51687;BME280;37774;52.192;4.584;2023-04-26T08:50:51;101984.88;;;8.76;100.00
51687;BME280;37774;52.192;4.584;2023-04-26T08:53:37;101910.72;;;8.38;100.00
51687;BME280;37774;52.192;4.584;2023-04-26T08:56:23;102071.53;;;9.38;100.00
51687;BME280;37774;52.192;4.584;2023-04-26T08:59:10;102099.78;;;9.21;100.00
51687;BME280;37774;52.192;4.584;2023-04-26T09:01:55;101915.56;;;7.77;100.00
51687;BME280;37774;52.192;4.584;2023-04-26T09:04:41;101824.06;;;7.31;100.00
51687;BME280;37774;52.192;4.584;2023-04-26T09:07:30;102114.09;;;9.02;100.00
51687;BME280;37774;52.192;4.584;2023-04-26T09:10:18;102055.22;;;8.96;100.00
51687;BME280;37774;52.192;4.584;2023-04-26T09:13:04;102085.47;;;8.97;100.00
51687;BME280;37774;52.192;4.584;2023-04-26T09:15:49;102043.47;;;8.68;100.00
51687;BME280;37774;52.192;4.584;2023-04-26T09:18:46;102047.16;;;8.81;100.00
51687;BME280;37774;52.192;4.584;2023-04-26T09:21:32;102026.97;;;8.64;100.00
51687;BME280;37774;52.192;4.584;2023-04-26T09:24:18;102048.84;;;8.77;100.00
51687;BME280;37774;52.192;4.584;2023-04-26T09:27:04;102041.28;;;8.46;100.00
51687;BME280;37774;52.192;4.584;2023-04-26T09:29:57;102099.94;;;8.84;100.00
51687;BME280;37774;52.192;4.584;2023-04-26T09:32:49;102068.19;;;8.96;100.00
51687;BME280;37774;52.192;4.584;2023-04-26T09:35:36;102091.50;;;8.96;100.00
51687;BME280;37774;52.192;4.584;2023-04-26T09:38:21;101967.59;;;8.32;100.00
51687;BME280;37774;52.192;4.584;2023-04-26T09:41:08;102070.25;;;9.14;100.00
51687;BME280;37774;52.192;4.584;2023-04-26T09:43:54;102031.66;;;8.82;100.00
51687;BME280;37774;52.192;4.584;2023-04-26T09:46:39;102092.84;;;9.20;100.00
51687;BME280;37774;52.192;4.584;2023-04-26T09:49:25;101992.31;;;8.59;100.00
51687;BME280;37774;52.192;4.584;2023-04-26T09:52:11;102076.50;;;9.78;100.00
51687;BME280;37774;52.192;4.584;2023-04-26T09:54:56;102068.22;;;10.04;100.00
51687;BME280;37774;52.192;4.584;2023-04-26T09:57:43;102065.50;;;9.94;100.00
51687;BME280;37774;52.192;4.584;2023-04-26T10:00:29;102058.00;;;10.13;100.00
51687;BME280;37774;52.192;4.584;2023-04-26T10:03:16;102086.00;;;11.07;100.00
51687;BME280;37774;52.192;4.584;2023-04-26T10:06:02;102031.91;;;10.72;100.00
51687;BME280;37774;52.192;4.584;2023-04-26T10:08:48;101973.31;;;11.13;100.00
51687;BME280;37774;52.192;4.584;2023-04-26T10:11:34;102074.47;;;11.74;100.00
51687;BME280;37774;52.192;4.584;2023-04-26T10:14:22;102038.50;;;11.28;100.00
51687;BME280;37774;52.192;4.584;2023-04-26T10:17:08;102092.19;;;11.17;100.00
51687;BME280;37774;52.192;4.584;2023-04-26T10:19:56;102087.25;;;11.49;100.00
51687;BME280;37774;52.192;4.584;2023-04-26T10:22:45;102000.31;;;11.25;100.00
51687;BME280;37774;52.192;4.584;2023-04-26T10:25:35;102013.69;;;11.77;100.00
51687;BME280;37774;52.192;4.584;2023-04-26T10:28:53;102009.31;;;11.68;100.00
51687;BME280;37774;52.192;4.584;2023-04-26T10:35:09;102097.13;;;11.88;100.00
51687;BME280;37774;52.192;4.584;2023-04-26T10:38:13;102101.50;;;11.93;100.00
51687;BME280;37774;52.192;4.584;2023-04-26T10:41:28;102087.75;;;11.09;100.00
51687;BME280;37774;52.192;4.584;2023-04-26T10:44:36;102082.63;;;11.16;100.00
51687;BME280;37774;52.192;4.584;2023-04-26T10:47:30;102084.56;;;11.40;100.00
51687;BME280;37774;52.192;4.584;2023-04-26T10:50:17;102071.91;;;11.80;100.00
51687;BME280;37774;52.192;4.584;2023-04-26T10:53:06;101992.56;;;11.30;100.00
51687;BME280;37774;52.192;4.584;2023-04-26T10:55:51;102036.00;;;11.42;100.00
51687;BME280;37774;52.192;4.584;2023-04-26T10:58:39;102077.66;;;11.40;100.00
51687;BME280;37774;52.192;4.584;2023-04-26T11:01:25;102011.81;;;11.54;100.00
51687;BME280;37774;52.192;4.584;2023-04-26T11:04:11;102051.94;;;11.84;100.00
51687;BME280;37774;52.192;4.584;2023-04-26T11:07:01;102062.22;;;11.65;100.00
51687;BME280;37774;52.192;4.584;2023-04-26T11:09:48;102005.00;;;11.75;100.00
51687;BME280;37774;52.192;4.584;2023-04-26T11:12:33;102057.19;;;11.90;100.00
51687;BME280;37774;52.192;4.584;2023-04-26T11:15:20;102011.31;;;12.14;100.00
51687;BME280;37774;52.192;4.584;2023-04-26T11:18:05;101991.19;;;11.87;100.00
51687;BME280;37774;52.192;4.584;2023-04-26T11:20:51;102037.38;;;12.12;100.00
51687;BME280;37774;52.192;4.584;2023-04-26T11:23:37;102024.44;;;12.26;100.00
51687;BME280;37774;52.192;4.584;2023-04-26T11:26:31;102049.75;;;12.62;100.00
51687;BME280;37774;52.192;4.584;2023-04-26T11:29:17;101935.63;;;11.89;100.00
51687;BME280;37774;52.192;4.584;2023-04-26T11:32:03;102046.66;;;11.72;100.00
51687;BME280;37774;52.192;4.584;2023-04-26T11:34:49;102000.03;;;12.15;100.00
51687;BME280;37774;52.192;4.584;2023-04-26T11:37:35;101793.97;;;10.20;100.00
51687;BME280;37774;52.192;4.584;2023-04-26T11:40:22;101980.53;;;11.48;100.00
51687;BME280;37774;52.192;4.584;2023-04-26T11:43:12;101920.59;;;11.35;100.00
51687;BME280;37774;52.192;4.584;2023-04-26T11:45:58;102029.59;;;12.22;100.00
51687;BME280;37774;52.192;4.584;2023-04-26T11:48:44;102039.16;;;12.20;100.00
51687;BME280;37774;52.192;4.584;2023-04-26T11:51:30;101974.66;;;11.75;100.00
51687;BME280;37774;52.192;4.584;2023-04-26T11:54:28;102054.53;;;11.84;100.00
51687;BME280;37774;52.192;4.584;2023-04-26T11:57:16;101972.78;;;11.59;100.00
51687;BME280;37774;52.192;4.584;2023-04-26T12:00:08;102038.09;;;11.91;100.00
51687;BME280;37774;52.192;4.584;2023-04-26T12:03:04;102020.97;;;12.31;100.00
51687;BME280;37774;52.192;4.584;2023-04-26T12:05:53;102038.34;;;12.33;100.00
51687;BME280;37774;52.192;4.584;2023-04-26T12:08:39;101688.34;;;10.20;100.00
51687;BME280;37774;52.192;4.584;2023-04-26T12:11:27;101967.47;;;11.42;100.00
51687;BME280;37774;52.192;4.584;2023-04-26T12:14:16;102031.13;;;11.90;100.00
51687;BME280;37774;52.192;4.584;2023-04-26T12:17:04;101970.16;;;11.54;100.00
51687;BME280;37774;52.192;4.584;2023-04-26T12:19:49;102044.63;;;12.85;100.00
51687;BME280;37774;52.192;4.584;2023-04-26T12:22:35;101992.31;;;12.34;100.00
51687;BME280;37774;52.192;4.584;2023-04-26T12:25:20;101898.03;;;11.39;100.00
51687;BME280;37774;52.192;4.584;2023-04-26T12:28:07;101987.91;;;12.25;100.00
51687;BME280;37774;52.192;4.584;2023-04-26T12:30:56;101953.22;;;12.45;100.00
51687;BME280;37774;52.192;4.584;2023-04-26T12:33:42;101975.94;;;13.23;100.00
51687;BME280;37774;52.192;4.584;2023-04-26T12:36:28;101913.31;;;12.75;100.00
51687;BME280;37774;52.192;4.584;2023-04-26T12:39:14;101817.69;;;12.65;100.00
51687;BME280;37774;52.192;4.584;2023-04-26T12:41:59;101725.50;;;11.66;100.00
51687;BME280;37774;52.192;4.584;2023-04-26T12:44:46;101975.91;;;12.75;100.00
51687;BME280;37774;52.192;4.584;2023-04-26T12:47:33;101959.38;;;12.79;100.00
51687;BME280;37774;52.192;4.584;2023-04-26T12:50:18;101959.31;;;12.45;100.00
51687;BME280;37774;52.192;4.584;2023-04-26T12:53:03;102046.38;;;13.00;100.00
51687;BME280;37774;52.192;4.584;2023-04-26T12:55:49;101963.63;;;12.24;100.00
51687;BME280;37774;52.192;4.584;2023-04-26T12:58:34;102056.75;;;12.78;100.00
51687;BME280;37774;52.192;4.584;2023-04-26T13:01:20;102072.44;;;12.86;100.00
51687;BME280;37774;52.192;4.584;2023-04-26T13:04:07;102043.78;;;13.15;100.00
51687;BME280;37774;52.192;4.584;2023-04-26T13:06:52;101965.50;;;13.20;100.00
51687;BME280;37774;52.192;4.584;2023-04-26T13:09:38;102049.88;;;13.16;100.00
51687;BME280;37774;52.192;4.584;2023-04-26T13:12:23;102047.09;;;14.42;100.00
51687;BME280;37774;52.192;4.584;2023-04-26T13:15:09;102030.78;;;13.43;100.00
51687;BME280;37774;52.192;4.584;2023-04-26T13:17:55;102022.91;;;13.71;100.00
51687;BME280;37774;52.192;4.584;2023-04-26T13:20:42;102008.13;;;13.25;100.00
51687;BME280;37774;52.192;4.584;2023-04-26T13:23:27;102042.06;;;13.41;100.00
51687;BME280;37774;52.192;4.584;2023-04-26T13:26:13;101973.31;;;13.02;100.00
51687;BME280;37774;52.192;4.584;2023-04-26T13:29:00;101989.84;;;13.14;100.00
51687;BME280;37774;52.192;4.584;2023-04-26T13:31:47;101951.25;;;11.86;100.00
51687;BME280;37774;52.192;4.584;2023-04-26T13:34:32;101989.84;;;13.00;100.00
51687;BME280;37774;52.192;4.584;2023-04-26T13:37:19;102028.06;;;12.72;100.00
51687;BME280;37774;52.192;4.584;2023-04-26T13:40:06;102044.63;;;13.11;100.00
51687;BME280;37774;52.192;4.584;2023-04-26T13:42:54;102035.84;;;12.61;100.00
51687;BME280;37774;52.192;4.584;2023-04-26T13:45:39;102037.53;;;12.48;100.00
51687;BME280;37774;52.192;4.584;2023-04-26T13:48:24;101859.84;;;11.30;100.00
51687;BME280;37774;52.192;4.584;2023-04-26T13:51:09;102040.22;;;12.73;100.00
51687;BME280;37774;52.192;4.584;2023-04-26T13:53:56;102010.47;;;12.18;100.00
51687;BME280;37774;52.192;4.584;2023-04-26T13:56:42;102047.06;;;12.37;100.00
51687;BME280;37774;52.192;4.584;2023-04-26T13:59:27;101944.00;;;11.35;100.00
51687;BME280;37774;52.192;4.584;2023-04-26T14:02:13;102060.09;;;12.34;100.00
51687;BME280;37774;52.192;4.584;2023-04-26T14:04:58;102050.38;;;12.08;100.00
51687;BME280;37774;52.192;4.584;2023-04-26T14:07:44;102068.25;;;11.58;100.00
51687;BME280;37774;52.192;4.584;2023-04-26T14:10:31;102028.34;;;11.61;100.00
51687;BME280;37774;52.192;4.584;2023-04-26T14:13:16;102057.44;;;12.26;100.00
51687;BME280;37774;52.192;4.584;2023-04-26T14:16:02;102060.69;;;11.94;100.00
51687;BME280;37774;52.192;4.584;2023-04-26T14:18:48;102061.44;;;11.79;100.00
51687;BME280;37774;52.192;4.584;2023-04-26T14:21:33;102062.97;;;11.50;100.00
51687;BME280;37774;52.192;4.584;2023-04-26T14:24:19;102058.97;;;11.96;100.00
51687;BME280;37774;52.192;4.584;2023-04-26T14:27:06;102067.03;;;11.16;100.00
51687;BME280;37774;52.192;4.584;2023-04-26T14:29:51;102072.56;;;11.56;100.00
51687;BME280;37774;52.192;4.584;2023-04-26T14:32:36;101995.22;;;11.36;100.00